• Join FlightAware (Why Join?)
  • Login
  • US Flag 
05:20AM EDT


 

Airport Tracker/Info


-or-


 

Live Flight TrackerFlight Track Log ✈ N190EF ✈ 03-May-2012 ✈ KRDD - KPSC

Flight Track Log - Related Links

Times and Time Zones

All times are in EDT time to prevent confusion due to time zone crossing. See the N190EF flight status page for this flight to view local times or setup timezone preferences in your user account.

Time Position Orientation Groundspeed Altitude Reporting Facility
EDT Latitude Longitude Course Direction KTS MPH feet Rate Location/Type
03:39PM 40.4300 -122.3722 North 258 297 25,000  Level Oakland Center
03:40PM 40.5906 -122.3508 157° South 252 290 25,000 -11,880 Level Oakland Center
03:41PM 40.4933 -122.2972 82° East 252 290 1,300 -10,860 Descending Oakland Center
03:42PM 40.4981 -122.2508 17° North 175 201 3,300 2,100 Climbing Oakland Center
03:43PM 40.5439 -122.2325 21° North 70 81 5,500 2,040 Climbing Oakland Center
03:44PM 40.5900 -122.2089 21° North 122 140 7,400 1,800 Climbing Oakland Center
03:45PM 40.6361 -122.1850 20° North 155 178 9,200 1,800 Climbing Oakland Center
03:46PM 40.6864 -122.1611 22° Northeast 170 196 11,100 1,920 Climbing Oakland Center
03:47PM 40.7347 -122.1347 18° North 181 208 13,100 1,920 Climbing Oakland Center
03:48PM 40.7828 -122.1136 20° North 186 214 15,000 1,800 Climbing Oakland Center
03:49PM 40.8267 -122.0922 19° North 181 208 16,700 1,620 Climbing Oakland Center
03:50PM 40.8828 -122.0661 21° North 177 204 18,600 1,440 Climbing Seattle Center
03:51PM 40.9319 -122.0406 19° North 184 212 19,900 1,260 Climbing Seattle Center
03:52PM 40.9836 -122.0164 24° Northeast 192 221 21,200 1,380 Climbing Seattle Center
03:53PM 41.0417 -121.9819 18° North 191 220 22,800 1,260 Climbing Seattle Center
03:54PM 41.0919 -121.9600 20° North 190 219 23,800 480 Climbing Seattle Center
03:55PM 41.1514 -121.9308 20° North 227 261 23,900 60 Climbing Seattle Center
03:56PM 41.2158 -121.8992 19° North 270 311 24,000  Climbing Seattle Center
03:57PM 41.2900 -121.8656 North 280 322 23,900 -60 Descending Seattle Center
03:58PM 41.3656 -121.8494 14° North 274 315 23,900  Level Seattle Center
03:59PM 41.4425 -121.8231 17° North 283 326 24,000  Climbing Seattle Center
04:00PM 41.5203 -121.7908 16° North 292 336 24,000  Level Seattle Center
04:01PM 41.6119 -121.7547 15° North 288 331 24,000  Level Seattle Center
04:02PM 41.6892 -121.7264 17° North 288 331 24,000  Level Seattle Center
04:03PM 41.7647 -121.6956 14° North 286 329 24,000  Level Seattle Center
04:04PM 41.8397 -121.6700 16° North 281 323 24,000  Level Seattle Center
04:05PM 41.9144 -121.6417 17° North 281 323 24,000  Level Seattle Center
04:06PM 41.9900 -121.6108 15° North 285 328 24,000  Level Seattle Center
04:07PM 42.0672 -121.5822 16° North 288 331 24,000  Level Seattle Center
04:08PM 42.1439 -121.5528 15° North 289 333 24,000  Level Seattle Center
04:09PM 42.2197 -121.5253 16° North 286 329 24,000  Level Seattle Center
04:10PM 42.2953 -121.4961 15° North 284 327 24,000  Level Seattle Center
04:11PM 42.3867 -121.4625 15° North 284 327 24,000  Level Seattle Center
04:12PM 42.4633 -121.4342 16° North 286 329 24,000  Level Seattle Center
04:13PM 42.5375 -121.4044 16° North 281 323 24,000  Level Seattle Center
04:14PM 42.6111 -121.3764 16° North 276 318 24,000  Level Seattle Center
04:15PM 42.6853 -121.3481 16° North 277 319 24,000  Level Seattle Center
04:16PM 42.7583 -121.3200 15° North 274 315 24,000  Level Seattle Center
04:18PM 42.8331 -121.2928 16° North 276 318 24,000  Level Seattle Center
04:19PM 42.9067 -121.2644 15° North 276 318 24,000  Level Seattle Center
04:20PM 42.9800 -121.2369 16° North 274 315 24,000  Level Seattle Center
04:21PM 43.0542 -121.2072 16° North 277 319 24,000  Level Seattle Center
04:22PM 43.1289 -121.1783 15° North 278 320 24,000  Level Seattle Center
04:23PM 43.2028 -121.1506 17° North 276 318 24,000  Level Seattle Center
04:24PM 43.2775 -121.1192 17° North 279 321 24,000  Level Seattle Center
04:25PM 43.3525 -121.0875 15° North 281 323 24,000  Level Seattle Center
04:26PM 43.4414 -121.0539 15° North 276 318 24,000  Level Seattle Center
04:27PM 43.5142 -121.0264 16° North 272 313 24,000  Level Seattle Center
04:28PM 43.5831 -120.9992 16° North 275 316 24,000  Level Seattle Center
04:29PM 43.6569 -120.9703 16° North 276 318 24,000  Level Seattle Center
04:30PM 43.7303 -120.9403 16° North 277 319 24,000  Level Seattle Center
04:31PM 43.8047 -120.9114 15° North 278 320 24,000  Level Seattle Center
04:32PM 43.8925 -120.8781 17° North 275 316 24,000  Level Seattle Center
04:33PM 43.9667 -120.8475 18° North 277 319 24,000  Level Seattle Center
04:34PM 44.0397 -120.8142 32° Northeast 279 321 24,000  Level Seattle Center
04:35PM 44.1072 -120.7558 27° Northeast 286 329 24,000  Level Seattle Center
04:36PM 44.1778 -120.7053 28° Northeast 286 329 24,000  Level Seattle Center
04:37PM 44.2492 -120.6531 27° Northeast 290 334 24,000  Level Seattle Center
04:38PM 44.3211 -120.6028 28° Northeast 290 334 24,000  Level Seattle Center
04:39PM 44.3900 -120.5519 28° Northeast 288 331 24,000  Level Seattle Center
04:40PM 44.4736 -120.4903 28° Northeast 285 328 24,000  Level Seattle Center
04:41PM 44.5439 -120.4386 28° Northeast 285 328 24,000  Level Seattle Center
04:42PM 44.6153 -120.3850 28° Northeast 287 330 24,000  Level Seattle Center
04:43PM 44.6856 -120.3331 28° Northeast 287 330 24,000  Level Seattle Center
04:44PM 44.7586 -120.2786 29° Northeast 294 338 24,000  Level Seattle Center
04:45PM 44.8306 -120.2233 28° Northeast 295 339 24,000  Level Seattle Center
04:46PM 44.9022 -120.1694 28° Northeast 293 337 24,000  Level Seattle Center
04:47PM 44.9756 -120.1147 28° Northeast 294 338 24,000 -420 Level Seattle Center
04:48PM 45.0489 -120.0594 28° Northeast 294 338 23,200 -1,080 Descending Seattle Center
04:49PM 45.1231 -120.0033 27° Northeast 298 343 21,900 -1,200 Descending Seattle Center
04:50PM 45.1975 -119.9486 29° Northeast 300 345 20,800 -1,140 Descending Seattle Center
04:51PM 45.2689 -119.8922 28° Northeast 297 342 19,600 -1,260 Descending Seattle Center
04:52PM 45.3372 -119.8397 28° Northeast 285 328 18,300 -1,560 Descending Seattle Center
04:53PM 45.4181 -119.7783 29° Northeast 277 319 16,500 -1,500 Descending Seattle Center
04:54PM 45.4847 -119.7267 28° Northeast 276 318 15,300 -1,260 Descending Seattle Center
04:55PM 45.5517 -119.6750 27° Northeast 275 316 14,000 -1,320 Descending Seattle Center
04:56PM 45.6186 -119.6253 29° Northeast 274 315 12,700 -1,260 Descending Seattle Center
04:57PM 45.6833 -119.5736 29° Northeast 271 312 11,500 -1,200 Descending Seattle Center
04:58PM 45.7453 -119.5247 29° Northeast 262 302 10,300 -1,140 Descending Seattle Center
04:59PM 45.8053 -119.4761 25° Northeast 255 293 9,200 -1,140 Descending Seattle Center
05:00PM 45.8650 -119.4358 30° Northeast 247 284 8,000 -1,140 Descending Seattle Center
05:02PM 45.9347 -119.3786 32° Northeast 242 278 6,700 -1,140 Descending Seattle Center
05:03PM 45.9992 -119.3206 29° Northeast 234 269 5,500 -1,020 Descending Seattle Center
05:04PM 46.0528 -119.2783 31° Northeast 226 260 4,700 -840 Descending Seattle Center
05:05PM 46.1028 -119.2347 28° Northeast 216 249 3,900 -840 Descending Seattle Center
05:06PM 46.1503 -119.1983 14° North 206 237 3,000 -900 Descending Seattle Center
05:07PM 46.1964 -119.1811 12° North 182 209 2,100 -720 Descending Seattle Center
05:08PM 46.2356 -119.1692 12° North 160 184 1,600 -540 Descending Seattle Center